Flight Track Log - Related Links

Times and Time Zones

All times are in EDT time to prevent confusion due to time zone crossing. See the N3H flight status page for this flight to view local times or setup timezone preferences in your user account.

Time Position Orientation Groundspeed Altitude Reporting Facility
EDT Latitude Longitude Course Direction KTS MPH feet Rate Location/Type
Sun 08:57:35 PM 34.1767 -77.8964 183° South 213 245 6,000  Level Washington Center
Sun 08:58:36 PM 34.1156 -77.9397 210° Southwest 218 251 9,800 3,246 Climbing Washington Center
Sun 09:01:02 PM 33.9339 -78.0669 210° Southwest 313 360 17,200 3,101 Climbing Jacksonville Center
Sun 09:02:03 PM 33.8544 -78.1164 207° Southwest 331 381 20,500 2,380 Climbing Jacksonville Center
Sun 09:03:03 PM 33.7592 -78.1889 212° Southwest 353 406 22,000 1,815 Climbing Jacksonville Center
Sun 09:04:02 PM 33.6697 -78.2511 210° Southwest 367 422 24,100 1,950 Climbing Jacksonville Center
Sun 09:05:03 PM 33.5800 -78.3131 210° Southwest 372 428 25,900 1,587 Climbing Jacksonville Center
Sun 09:06:03 PM 33.4844 -78.3778 209° Southwest 379 436 27,300 1,462 Climbing Jacksonville Center
Sun 09:07:02 PM 33.3886 -78.4425 209° Southwest 389 448 28,800 1,500 Climbing Jacksonville Center
Sun 09:08:03 PM 33.2928 -78.5092 210° Southwest 394 453 30,300 1,388 Climbing Jacksonville Center
Sun 09:09:03 PM 33.1950 -78.5761 210° Southwest 394 453 31,600 1,350 Climbing Jacksonville Center
Sun 09:10:03 PM 33.0950 -78.6406 208° Southwest 399 459 33,000 1,450 Climbing Jacksonville Center
Sun 09:11:03 PM 33.0011 -78.7092 212° Southwest 404 465 34,500 1,550 Climbing Jacksonville Center
Sun 09:12:03 PM 32.9031 -78.7733 209° Southwest 404 465 36,100 1,361 Climbing Jacksonville Center
Sun 09:13:02 PM 32.8114 -78.8367 210° Southwest 394 453 37,200 1,160 Climbing Jacksonville Center
Sun 09:14:02 PM 32.7133 -78.9028 210° Southwest 394 453 38,400 1,100 Climbing Jacksonville Center
Sun 09:15:02 PM 32.6172 -78.9686 210° Southwest 394 453 39,400 800 Climbing Jacksonville Center
Sun 09:16:02 PM 32.5189 -79.0344 209° Southwest 394 453 40,000 300 Climbing Jacksonville Center
Sun 09:17:02 PM 32.4228 -79.0978 209° Southwest 399 459 40,000  Level Jacksonville Center
Sun 09:18:03 PM 32.3267 -79.1606 209° Southwest 399 459 40,000  Level Jacksonville Center
Sun 09:19:03 PM 32.2306 -79.2283 211° Southwest 399 459 40,000  Level Jacksonville Center
Sun 09:20:03 PM 32.1322 -79.2936 209° Southwest 404 465 40,000  Level Jacksonville Center
Sun 09:21:03 PM 32.0336 -79.3589 209° Southwest 404 465 40,000  Level Jacksonville Center
Sun 09:22:03 PM 31.9353 -79.4239 209° Southwest 409 471 40,000  Level Jacksonville Center
Sun 09:23:02 PM 31.8281 -79.4719 201° Southwest 409 471 40,000  Level Jacksonville Center
Sun 09:24:02 PM 31.7228 -79.5125 198° South 409 471 40,000  Level Jacksonville Center
Sun 09:25:02 PM 31.6111 -79.5603 200° South 414 476 40,000  Level Jacksonville Center
Sun 09:26:02 PM 31.5017 -79.6056 199° South 419 482 40,000  Level Jacksonville Center
Sun 09:27:02 PM 31.3922 -79.6486 199° South 419 482 40,000  Level Jacksonville Center
Sun 09:28:03 PM 31.2950 -79.6883 199° South 419 482 40,000  Level Jacksonville Center
Sun 09:29:02 PM 31.1833 -79.7286 197° South 419 482 40,000  Level Jacksonville Center
Sun 09:30:02 PM 31.0781 -79.7733 200° South 419 482 40,000  Level Jacksonville Center
Sun 09:31:02 PM 30.9686 -79.8181 199° South 419 482 40,000  Level Jacksonville Center
Sun 09:32:03 PM 30.8547 -79.8606 198° South 419 482 40,000  Level Jacksonville Center
Sun 09:33:02 PM 30.7431 -79.9028 198° South 419 482 40,000  Level Jacksonville Center
Sun 09:34:02 PM 30.6292 -79.9475 199° South 419 482 40,000  Level Jacksonville Center
Sun 09:35:02 PM 30.5194 -79.9917 199° South 424 488 40,000  Level Jacksonville Center
Sun 09:36:02 PM 30.4078 -80.0361 199° South 424 488 40,000  Level Jacksonville Center
Sun 09:37:03 PM 30.2981 -80.0803 199° South 418 481 40,000  Level Jacksonville Center
Sun 09:38:03 PM 30.1842 -80.1244 199° South 423 487 40,000  Level Jacksonville Center
Sun 09:39:02 PM 30.0725 -80.1683 199° South 423 487 40,000  Level Jacksonville Center
Sun 09:40:02 PM 29.9586 -80.2125 199° South 423 487 40,000  Level Jacksonville Center
Sun 09:41:03 PM 29.8489 -80.2561 199° South 423 487 40,000  Level Jacksonville Center
Sun 09:42:02 PM 29.7350 -80.2997 198° South 423 487 40,000  Level Jacksonville Center
Sun 09:43:03 PM 29.6189 -80.3436 198° South 423 487 40,000  Level Jacksonville Center
Sun 09:44:03 PM 29.4967 -80.3919 199° South 423 487 40,000  Level Jacksonville Center
Sun 09:44:58 PM 29.3886 -80.4450 203° Southwest 422 486 40,000  Level Miami Center
Sun 09:45:56 PM 29.2878 -80.4797 197° South 431 496 40,000 -400 Level Miami Center
Sun 09:46:58 PM 29.1719 -80.5236 198° South 431 496 39,200 -1,100 Descending Miami Center
Sun 09:47:56 PM 29.0625 -80.5625 197° South 431 496 37,800 -1,119 Descending Miami Center
Sun 09:48:56 PM 28.9486 -80.6061 199° South 431 496 37,000 -595 Descending Miami Center
Sun 09:49:57 PM 28.8369 -80.6450 197° South 431 496 36,600 -1,700 Descending Miami Center
Sun 09:50:56 PM 28.7231 -80.6908 199° South 426 490 33,600 -3,074 Descending Miami Center
Sun 09:51:58 PM 28.6072 -80.7319 197° South 434 499 30,400 -3,098 Descending Miami Center
Sun 09:52:58 PM 28.5019 -80.7731 199° South 444 511 27,300 -2,847 Descending Miami Center
Sun 09:53:56 PM 28.3922 -80.8142 198° South 437 503 24,800 -1,831 Descending Miami Center
Sun 09:54:56 PM 28.2847 -80.8503 196° South 422 486 23,700 -1,050 Descending Miami Center
Sun 09:55:56 PM 28.1814 -80.8914 199° South 410 472 22,700 -992 Descending Miami Center
Sun 09:56:57 PM 28.0822 -80.9278 198° South 395 455 21,700 -1,000 Descending Miami Center
Sun 09:57:56 PM 27.9853 -80.9644 198° South 382 440 20,700 -992 Descending Miami Center
Sun 09:58:58 PM 27.8797 -81.0028 198° South 377 434 19,700 -1,050 Descending Miami Center
Sun 09:59:56 PM 27.7806 -81.0414 199° South 376 433 18,600 -1,068 Descending Miami Center
Sun 10:00:56 PM 27.6814 -81.0778 198° South 376 433 17,600 -992 Descending Miami Center
Sun 10:01:57 PM 27.5864 -81.1139 199° South 371 427 16,600 -780 Descending Miami Center
Sun 10:02:59 PM 27.4917 -81.1481 198° South 371 427 16,000 -303 Descending Miami Center
Sun 10:03:56 PM 27.4069 -81.1797 198° South 365 420 16,000  Level Miami Center
Sun 10:04:56 PM 27.3078 -81.2158 198° South 374 430 16,000 -900 Level Miami Center
Sun 10:05:56 PM 27.2067 -81.2517 197° South 358 412 14,200 -1,700 Descending Miami Center
Sun 10:06:56 PM 27.1222 -81.2836 199° South 337 388 12,600 -1,587 Descending Miami Center
Sun 10:07:57 PM 27.0483 -81.3111 198° South 322 371 11,000 -1,300 Descending Miami Center
Sun 10:08:56 PM 26.9575 -81.3447 198° South 317 365 10,000 -504 Descending Miami Center
Sun 10:09:56 PM 26.8750 -81.3767 199° South 312 359 10,000 -600 Level Miami Center
Sun 10:10:56 PM 26.8011 -81.3994 195° South 307 353 8,800 -1,339 Descending Miami Center
Sun 10:11:57 PM 26.7242 -81.3964 178° South 294 338 7,300 -1,488 Descending Miami Center
Sun 10:12:57 PM 26.6522 -81.4239 199° South 278 320 5,800 -1,150 Descending Miami Center
Sun 10:13:57 PM 26.5864 -81.4606 206° Southwest 271 312 5,000 -800 Descending Miami Center
Sun 10:14:57 PM 26.5225 -81.4978 208° Southwest 266 306 4,200 -1,008 Descending Miami Center
Sun 10:15:56 PM 26.4567 -81.5344 207° Southwest 266 306 3,000 -1,220 Descending Miami Center

Login

Don't have an account? Register now (free) for customized features, flight alerts, and more!